Time;durP1;ratioP1;P1;durP2;ratioP2;P2;SDS_P1;SDS_P2;PMS_P1;PMS_P2;Temp;Humidity;BMP_temperature;BMP_pressure;BME280_temperature;BME280_humidity;BME280_pressure;Samples;Min_cycle;Max_cycle;Signal;HPM_P1;HPM_P2
2021/09/14 00:00:42;;;;;;;9.90;1.00;;;;;;;;;;5014935;28;20369;-66
2021/09/14 00:03:12;;;;;;;13.10;0.85;;;;;;;;;;5016180;28;20107;-66
2021/09/14 00:05:41;;;;;;;7.90;1.08;;;;;;;;;;5016166;28;20022;-66
2021/09/14 00:08:07;;;;;;;8.73;0.90;;;;;;;;;;5015493;28;20022;-66
2021/09/14 00:10:33;;;;;;;4.82;1.10;;;;;;;;;;5016132;28;20148;-66
2021/09/14 00:12:59;;;;;;;9.88;1.02;;;;;;;;;;5016017;28;20481;-66
2021/09/14 00:15:25;;;;;;;9.50;1.10;;;;;;;;;;5015737;28;20172;-66
2021/09/14 00:17:51;;;;;;;6.35;1.00;;;;;;;;;;4996338;28;20037;-66
2021/09/14 00:20:17;;;;;;;7.03;1.00;;;;;;;;;;4996503;28;20362;-66
2021/09/14 00:22:43;;;;;;;6.85;1.05;;;;;;;;;;4996374;28;20096;-66
2021/09/14 00:25:10;;;;;;;15.48;1.13;;;;;;;;;;4996111;28;20054;-66
2021/09/14 00:27:36;;;;;;;9.23;0.90;;;;;;;;;;4996193;28;20038;-66
2021/09/14 00:30:02;;;;;;;9.85;0.95;;;;;;;;;;4996096;28;20073;-66
2021/09/14 00:32:28;;;;;;;5.80;0.90;;;;;;;;;;4994851;28;20041;-66
2021/09/14 00:34:54;;;;;;;7.05;0.88;;;;;;;;;;4996631;28;20026;-66
2021/09/14 00:37:20;;;;;;;10.77;0.90;;;;;;;;;;5015498;28;20021;-66
2021/09/14 00:39:46;;;;;;;12.02;1.23;;;;;;;;;;5015812;28;20446;-66
2021/09/14 00:42:12;;;;;;;4.55;0.80;;;;;;;;;;5015544;28;20104;-66
2021/09/14 00:44:38;;;;;;;5.78;1.50;;;;;;;;;;5015481;28;20029;-66
2021/09/14 00:47:05;;;;;;;5.43;0.88;;;;;;;;;;5014330;28;20026;-66
2021/09/14 00:49:31;;;;;;;10.95;1.15;;;;;;;;;;5015313;28;20096;-66
2021/09/14 00:51:57;;;;;;;10.85;1.40;;;;;;;;;;5014233;28;20113;-67
2021/09/14 00:54:24;;;;;;;3.55;0.90;;;;;;;;;;5015391;28;20391;-66
2021/09/14 00:56:50;;;;;;;7.82;0.90;;;;;;;;;;5015206;28;20489;-65
2021/09/14 00:59:16;;;;;;;6.22;1.10;;;;;;;;;;5015083;28;20033;-66
2021/09/14 01:01:42;;;;;;;8.65;1.00;;;;;;;;;;5015336;28;20033;-65
2021/09/14 01:04:08;;;;;;;8.85;1.17;;;;;;;;;;5015076;28;20037;-66
2021/09/14 01:06:35;;;;;;;11.93;1.17;;;;;;;;;;5013791;28;20030;-66
2021/09/14 01:09:01;;;;;;;21.02;1.20;;;;;;;;;;5015157;28;20163;-66
2021/09/14 01:11:30;;;;;;;13.55;1.10;;;;;;;;;;5015001;28;20037;-65
2021/09/14 01:14:03;;;;;;;27.70;1.88;;;;;;;;;;5014637;28;20050;-65
2021/09/14 01:16:30;;;;;;;20.90;1.50;;;;;;;;;;5015012;28;20101;-66
2021/09/14 01:18:56;;;;;;;13.32;1.45;;;;;;;;;;5014821;28;20037;-66
2021/09/14 01:21:22;;;;;;;16.90;1.63;;;;;;;;;;5014742;28;20034;-66
2021/09/14 01:23:48;;;;;;;20.35;1.92;;;;;;;;;;5013865;28;20034;-65
2021/09/14 01:26:14;;;;;;;26.10;1.25;;;;;;;;;;5014754;28;20108;-64
2021/09/14 01:28:40;;;;;;;14.60;1.15;;;;;;;;;;5014615;28;20026;-65
2021/09/14 01:31:06;;;;;;;21.15;1.88;;;;;;;;;;5014662;28;20033;-66
2021/09/14 01:33:32;;;;;;;17.27;1.70;;;;;;;;;;5014580;28;20033;-67
2021/09/14 01:35:58;;;;;;;17.42;2.40;;;;;;;;;;5014515;28;20022;-67
2021/09/14 01:38:24;;;;;;;10.20;1.38;;;;;;;;;;5012870;28;20026;-66
2021/09/14 01:40:49;;;;;;;9.40;1.33;;;;;;;;;;4994994;28;20033;-66
2021/09/14 01:43:17;;;;;;;6.05;1.10;;;;;;;;;;4994546;28;20038;-66
2021/09/14 01:45:43;;;;;;;21.58;1.50;;;;;;;;;;4995004;28;20026;-66
2021/09/14 01:48:09;;;;;;;10.50;1.40;;;;;;;;;;4994732;28;20037;-66
2021/09/14 01:50:35;;;;;;;8.57;1.92;;;;;;;;;;4994848;28;20023;-67
2021/09/14 01:53:02;;;;;;;15.75;1.42;;;;;;;;;;4995213;28;20018;-66
2021/09/14 01:55:29;;;;;;;11.88;1.50;;;;;;;;;;5009572;28;20030;-66
2021/09/14 01:57:56;;;;;;;17.05;1.25;;;;;;;;;;4994552;28;20066;-65
2021/09/14 02:00:25;;;;;;;8.73;1.40;;;;;;;;;;5009567;28;20033;-66
2021/09/14 02:43:52;;;;;;;19.58;1.20;;;;;;;;;;5013037;28;20382;-65
2021/09/14 03:00:01;;;;;;;14.57;1.60;;;;;;;;;;5013324;28;20029;-65
2021/09/14 03:02:27;;;;;;;9.13;1.52;;;;;;;;;;5013104;28;20038;-66
2021/09/14 03:04:53;;;;;;;8.27;1.10;;;;;;;;;;5012901;28;20040;-66
2021/09/14 03:07:19;;;;;;;21.10;1.60;;;;;;;;;;5011817;28;20515;-67
2021/09/14 03:09:45;;;;;;;16.92;1.60;;;;;;;;;;5013012;28;20028;-65
2021/09/14 03:12:11;;;;;;;14.77;1.58;;;;;;;;;;5012976;28;20088;-66
2021/09/14 03:14:37;;;;;;;12.20;1.63;;;;;;;;;;5012786;28;20053;-65
2021/09/14 03:17:03;;;;;;;10.05;1.30;;;;;;;;;;5012988;28;20030;-65
2021/09/14 03:19:29;;;;;;;8.60;1.17;;;;;;;;;;5016738;28;20084;-65
2021/09/14 03:21:55;;;;;;;10.48;1.42;;;;;;;;;;5015822;28;20416;-65
2021/09/14 03:24:21;;;;;;;10.80;1.23;;;;;;;;;;5016799;28;20065;-66
2021/09/14 03:26:47;;;;;;;8.00;0.90;;;;;;;;;;5016882;28;20432;-65
2021/09/14 03:29:13;;;;;;;15.00;1.45;;;;;;;;;;5015801;28;20034;-65
2021/09/14 03:31:39;;;;;;;13.02;1.20;;;;;;;;;;5016883;28;20053;-65
2021/09/14 03:34:05;;;;;;;14.38;1.63;;;;;;;;;;5016762;28;20037;-65
2021/09/14 03:36:31;;;;;;;15.00;2.33;;;;;;;;;;5016634;28;20061;-66
2021/09/14 03:38:57;;;;;;;10.50;1.45;;;;;;;;;;5015494;28;20060;-66
2021/09/14 03:41:23;;;;;;;11.52;1.35;;;;;;;;;;5016313;28;20041;-66
2021/09/14 03:43:49;;;;;;;12.02;1.67;;;;;;;;;;5016697;28;20022;-66
2021/09/14 03:46:15;;;;;;;9.13;1.15;;;;;;;;;;5016687;28;20025;-66
2021/09/14 03:48:41;;;;;;;12.40;1.63;;;;;;;;;;5015961;28;20087;-65
2021/09/14 03:51:07;;;;;;;9.38;1.40;;;;;;;;;;5015360;28;20026;-65
2021/09/14 03:53:33;;;;;;;9.23;1.30;;;;;;;;;;5016278;28;20064;-65
2021/09/14 03:55:59;;;;;;;3.38;1.25;;;;;;;;;;5016309;28;20037;-65
2021/09/14 03:58:25;;;;;;;10.85;1.50;;;;;;;;;;5015214;28;20406;-65
2021/09/14 04:00:52;;;;;;;12.32;1.80;;;;;;;;;;5016103;28;20033;-66
2021/09/14 04:03:25;;;;;;;9.88;1.40;;;;;;;;;;5016278;28;20037;-65
2021/09/14 04:11:30;;;;;;;9.75;1.20;;;;;;;;;;4955598;29;20071;-66
2021/09/14 04:13:56;;;;;;;10.38;1.10;;;;;;;;;;4939353;29;20122;-65
2021/09/14 04:16:22;;;;;;;10.07;1.15;;;;;;;;;;4973028;28;20037;-68
2021/09/14 04:18:49;;;;;;;5.65;1.20;;;;;;;;;;5015455;28;20030;-66
2021/09/14 04:21:15;;;;;;;5.95;1.17;;;;;;;;;;5015923;28;20037;-66
2021/09/14 04:23:41;;;;;;;10.63;1.23;;;;;;;;;;5015710;28;20468;-67
2021/09/14 04:26:07;;;;;;;21.20;1.33;;;;;;;;;;5015765;28;20101;-65
2021/09/14 04:28:33;;;;;;;2.90;1.00;;;;;;;;;;5015599;28;20446;-66
2021/09/14 04:30:59;;;;;;;8.10;1.40;;;;;;;;;;5015811;28;20104;-66
2021/09/14 04:33:25;;;;;;;7.10;1.30;;;;;;;;;;5015686;28;20030;-66
2021/09/14 04:35:51;;;;;;;11.70;1.20;;;;;;;;;;5015615;28;20071;-65
2021/09/14 04:38:17;;;;;;;6.97;1.58;;;;;;;;;;5015502;28;20029;-66
2021/09/14 04:40:43;;;;;;;16.35;1.58;;;;;;;;;;5015605;28;20033;-66
2021/09/14 04:43:09;;;;;;;16.55;1.45;;;;;;;;;;5015571;28;20043;-66
2021/09/14 04:45:35;;;;;;;21.40;1.33;;;;;;;;;;5015374;28;20026;-66
2021/09/14 04:48:01;;;;;;;17.65;1.33;;;;;;;;;;5015319;28;20408;-66
2021/09/14 04:50:27;;;;;;;8.68;1.60;;;;;;;;;;5014842;28;20450;-66
2021/09/14 04:52:53;;;;;;;22.70;1.95;;;;;;;;;;5015570;28;20022;-66
2021/09/14 04:55:19;;;;;;;12.48;1.27;;;;;;;;;;5015081;28;20030;-67
2021/09/14 04:57:45;;;;;;;20.40;1.67;;;;;;;;;;5015276;28;20056;-66
2021/09/14 05:00:14;;;;;;;13.55;1.48;;;;;;;;;;5014936;28;20110;-66
2021/09/14 05:02:40;;;;;;;11.23;1.58;;;;;;;;;;5013781;28;20038;-66
2021/09/14 05:05:06;;;;;;;13.68;2.40;;;;;;;;;;5014832;28;20045;-66
2021/09/14 05:07:32;;;;;;;20.63;1.92;;;;;;;;;;5013997;28;20033;-66
2021/09/14 05:09:58;;;;;;;13.55;2.10;;;;;;;;;;5014997;28;20022;-66
2021/09/14 05:12:24;;;;;;;10.77;2.50;;;;;;;;;;5014996;28;20030;-66
2021/09/14 05:14:50;;;;;;;10.38;2.60;;;;;;;;;;5014902;28;20091;-66
2021/09/14 05:17:16;;;;;;;24.30;2.30;;;;;;;;;;5014909;28;20033;-66
2021/09/14 05:19:44;;;;;;;17.70;2.72;;;;;;;;;;5013509;28;20030;-66
2021/09/14 05:22:12;;;;;;;21.83;2.67;;;;;;;;;;5013787;28;20109;-66
2021/09/14 05:24:38;;;;;;;22.17;3.53;;;;;;;;;;4995232;28;20026;-67
2021/09/14 05:27:04;;;;;;;12.93;2.47;;;;;;;;;;4997943;28;20068;-68
2021/09/14 05:29:31;;;;;;;14.55;3.00;;;;;;;;;;5000721;28;20026;-66
2021/09/14 05:31:57;;;;;;;14.10;2.65;;;;;;;;;;5013218;28;20057;-68
2021/09/14 05:34:24;;;;;;;13.73;2.40;;;;;;;;;;5014493;28;20465;-64
2021/09/14 05:36:50;;;;;;;13.98;2.35;;;;;;;;;;5013392;28;20029;-67
2021/09/14 05:39:16;;;;;;;11.68;2.28;;;;;;;;;;5002483;28;20439;-68
2021/09/14 05:41:42;;;;;;;12.05;2.80;;;;;;;;;;5013392;28;20041;-68
2021/09/14 05:44:09;;;;;;;7.82;3.33;;;;;;;;;;5014477;28;20021;-68
2021/09/14 05:46:37;;;;;;;12.82;2.53;;;;;;;;;;5012849;28;20053;-64
2021/09/14 05:49:03;;;;;;;8.18;2.65;;;;;;;;;;5014334;28;20040;-67
2021/09/14 05:51:29;;;;;;;7.63;1.88;;;;;;;;;;5014184;28;20096;-68
2021/09/14 05:53:55;;;;;;;11.52;2.78;;;;;;;;;;5014330;28;20156;-67
2021/09/14 05:56:21;;;;;;;12.15;2.08;;;;;;;;;;5004201;28;20363;-67
2021/09/14 05:58:47;;;;;;;8.85;2.40;;;;;;;;;;4994498;28;20023;-66
2021/09/14 06:01:13;;;;;;;8.00;2.38;;;;;;;;;;4994373;28;20093;-66
2021/09/14 06:03:39;;;;;;;22.75;2.92;;;;;;;;;;5005415;28;20057;-64
2021/09/14 06:06:07;;;;;;;24.30;3.13;;;;;;;;;;5014000;28;20370;-67
2021/09/14 06:08:33;;;;;;;14.93;2.65;;;;;;;;;;5014049;28;20407;-67
2021/09/14 06:10:59;;;;;;;10.02;3.25;;;;;;;;;;5012862;28;20030;-65
2021/09/14 06:13:25;;;;;;;12.02;2.63;;;;;;;;;;5013758;28;20076;-68
2021/09/14 06:15:51;;;;;;;16.48;2.92;;;;;;;;;;5014076;28;20929;-68
2021/09/14 06:18:17;;;;;;;9.75;2.70;;;;;;;;;;5013729;28;20369;-69
2021/09/14 06:20:44;;;;;;;13.60;2.88;;;;;;;;;;5013697;28;20643;-67
2021/09/14 06:23:10;;;;;;;7.55;2.83;;;;;;;;;;5013046;28;20061;-68
2021/09/14 06:25:37;;;;;;;12.57;3.13;;;;;;;;;;5011951;28;20057;-68
2021/09/14 06:28:03;;;;;;;9.13;3.00;;;;;;;;;;5012630;28;20469;-66
2021/09/14 06:30:29;;;;;;;7.93;2.75;;;;;;;;;;5013499;28;20026;-68
2021/09/14 06:32:55;;;;;;;6.03;2.90;;;;;;;;;;5013559;28;20129;-68
2021/09/14 06:35:21;;;;;;;8.45;2.53;;;;;;;;;;5013471;28;20053;-67
2021/09/14 06:37:47;;;;;;;8.38;3.63;;;;;;;;;;5004852;28;20038;-67
2021/09/14 06:40:13;;;;;;;6.45;3.08;;;;;;;;;;5008733;28;20026;-68
2021/09/14 06:42:39;;;;;;;5.95;3.35;;;;;;;;;;5013574;28;20129;-67
2021/09/14 06:45:05;;;;;;;4.30;3.17;;;;;;;;;;5013330;28;20092;-63
2021/09/14 06:47:31;;;;;;;4.50;2.55;;;;;;;;;;5000374;28;20030;-64
2021/09/14 06:49:57;;;;;;;5.82;2.92;;;;;;;;;;4993440;28;20544;-63
2021/09/14 06:52:23;;;;;;;7.20;3.80;;;;;;;;;;4993227;28;20041;-64
2021/09/14 06:54:49;;;;;;;7.60;3.25;;;;;;;;;;4993189;28;20026;-66
2021/09/14 06:57:19;;;;;;;8.35;3.28;;;;;;;;;;5009099;28;20041;-65
2021/09/14 06:59:45;;;;;;;12.02;3.63;;;;;;;;;;5013155;28;20101;-62
2021/09/14 07:02:10;;;;;;;8.00;4.10;;;;;;;;;;5011715;28;20176;-66
2021/09/14 07:04:36;;;;;;;9.65;3.47;;;;;;;;;;5011945;28;20030;-65
2021/09/14 07:07:03;;;;;;;8.90;3.92;;;;;;;;;;5013082;28;20037;-65
2021/09/14 07:09:28;;;;;;;7.43;3.83;;;;;;;;;;5012767;28;20530;-66
2021/09/14 07:11:54;;;;;;;5.50;3.95;;;;;;;;;;5012971;28;20168;-64
2021/09/14 07:14:20;;;;;;;8.30;3.40;;;;;;;;;;5012794;28;20550;-65
2021/09/14 07:16:46;;;;;;;6.75;3.20;;;;;;;;;;5012723;28;20032;-65
2021/09/14 07:19:12;;;;;;;4.53;3.03;;;;;;;;;;5012835;28;20030;-65
2021/09/14 07:21:38;;;;;;;3.97;3.13;;;;;;;;;;5011720;28;20037;-61
2021/09/14 07:24:05;;;;;;;61.55;5.68;;;;;;;;;;5012750;28;20476;-60
2021/09/14 07:26:31;;;;;;;60.33;5.90;;;;;;;;;;5011470;28;20118;-61
2021/09/14 07:28:57;;;;;;;30.45;4.80;;;;;;;;;;5012669;28;20101;-60
2021/09/14 07:31:23;;;;;;;20.88;4.72;;;;;;;;;;5011486;28;20029;-60
2021/09/14 07:33:49;;;;;;;26.45;5.30;;;;;;;;;;5012760;28;20109;-60
2021/09/14 07:36:15;;;;;;;17.63;5.40;;;;;;;;;;5012614;28;20108;-60
2021/09/14 07:38:43;;;;;;;12.25;6.13;;;;;;;;;;5012464;28;20477;-61
2021/09/14 07:41:09;;;;;;;10.50;5.32;;;;;;;;;;5012629;28;20359;-60
2021/09/14 07:43:35;;;;;;;13.15;6.03;;;;;;;;;;5012301;28;20458;-62
2021/09/14 07:46:01;;;;;;;12.65;6.82;;;;;;;;;;5012592;28;20113;-62
2021/09/14 07:48:27;;;;;;;11.02;6.35;;;;;;;;;;5012533;28;20032;-61
2021/09/14 07:50:53;;;;;;;14.20;6.65;;;;;;;;;;5012590;28;20353;-61
2021/09/14 07:53:19;;;;;;;13.40;6.68;;;;;;;;;;5011486;28;20049;-61
2021/09/14 07:55:45;;;;;;;11.57;7.18;;;;;;;;;;5012230;28;20026;-61
2021/09/14 07:58:11;;;;;;;12.45;6.78;;;;;;;;;;5012411;28;20446;-63
2021/09/14 08:00:37;;;;;;;17.95;7.47;;;;;;;;;;5012482;28;20038;-63
2021/09/14 08:03:03;;;;;;;18.88;7.13;;;;;;;;;;5012590;28;20034;-64
2021/09/14 08:05:29;;;;;;;15.00;7.38;;;;;;;;;;5014741;28;20105;-62
2021/09/14 08:07:55;;;;;;;12.45;7.15;;;;;;;;;;5015849;28;20025;-63
2021/09/14 08:10:21;;;;;;;13.88;7.30;;;;;;;;;;5015280;28;20565;-62
2021/09/14 08:12:47;;;;;;;13.88;6.90;;;;;;;;;;5016075;28;20036;-62
2021/09/14 08:15:15;;;;;;;15.68;7.40;;;;;;;;;;5013078;28;20050;-63
2021/09/14 08:17:41;;;;;;;16.33;6.75;;;;;;;;;;5006767;28;20037;-63
2021/09/14 08:20:07;;;;;;;16.88;7.43;;;;;;;;;;5008141;28;20027;-63
2021/09/14 08:22:33;;;;;;;12.45;8.00;;;;;;;;;;5005807;28;20064;-62
2021/09/14 08:24:59;;;;;;;19.85;7.80;;;;;;;;;;5003849;28;20022;-63
2021/09/14 08:27:26;;;;;;;12.98;7.43;;;;;;;;;;4999685;28;20548;-63
2021/09/14 08:29:52;;;;;;;14.77;8.23;;;;;;;;;;5011162;28;20410;-63
2021/09/14 08:32:18;;;;;;;10.93;7.57;;;;;;;;;;5007125;28;20366;-63
2021/09/14 08:34:44;;;;;;;15.23;7.50;;;;;;;;;;5012018;28;20053;-63
2021/09/14 08:37:10;;;;;;;17.38;7.47;;;;;;;;;;5001858;28;20046;-64
2021/09/14 08:39:36;;;;;;;16.10;7.55;;;;;;;;;;5004083;28;20053;-64
2021/09/14 08:42:02;;;;;;;12.80;7.35;;;;;;;;;;4998200;28;20102;-63
2021/09/14 08:44:28;;;;;;;13.25;8.10;;;;;;;;;;5009157;28;20068;-63
2021/09/14 08:46:55;;;;;;;11.70;7.57;;;;;;;;;;5014603;28;20389;-62
2021/09/14 08:49:21;;;;;;;9.73;7.57;;;;;;;;;;5006019;28;20033;-63
2021/09/14 08:51:47;;;;;;;14.45;7.10;;;;;;;;;;4995771;28;20030;-64
2021/09/14 08:54:14;;;;;;;14.23;8.07;;;;;;;;;;4995533;28;20524;-61
2021/09/14 08:56:40;;;;;;;11.20;7.70;;;;;;;;;;4995649;28;20062;-60
2021/09/14 08:59:06;;;;;;;17.52;7.60;;;;;;;;;;4995713;28;20065;-62
2021/09/14 09:01:33;;;;;;;13.32;7.88;;;;;;;;;;4995657;28;20022;-62
2021/09/14 09:04:08;;;;;;;14.13;7.88;;;;;;;;;;4994871;28;20038;-63
2021/09/14 09:06:38;;;;;;;15.55;8.50;;;;;;;;;;4995187;28;20031;-62
2021/09/14 09:09:11;;;;;;;13.57;8.77;;;;;;;;;;4995167;28;20041;-62
2021/09/14 09:11:37;;;;;;;11.82;8.77;;;;;;;;;;5008996;28;20525;-65
2021/09/14 09:14:04;;;;;;;15.50;8.98;;;;;;;;;;5005824;28;20088;-65
2021/09/14 09:16:31;;;;;;;15.55;8.43;;;;;;;;;;5001148;28;20018;-64
2021/09/14 09:19:01;;;;;;;13.52;8.75;;;;;;;;;;5001464;28;20025;-63
2021/09/14 09:21:31;;;;;;;16.45;9.40;;;;;;;;;;5014609;28;20028;-62
2021/09/14 09:23:58;;;;;;;15.07;8.60;;;;;;;;;;5014315;28;20034;-62
2021/09/14 09:26:32;;;;;;;16.27;8.80;;;;;;;;;;5014816;28;20026;-63
2021/09/14 09:28:59;;;;;;;11.98;8.27;;;;;;;;;;5013746;28;20034;-62
2021/09/14 09:31:25;;;;;;;12.43;8.40;;;;;;;;;;5014554;28;20026;-62
2021/09/14 09:34:02;;;;;;;15.70;9.00;;;;;;;;;;5014649;28;20033;-62
2021/09/14 09:36:32;;;;;;;15.43;8.10;;;;;;;;;;5014467;28;20022;-62
2021/09/14 09:39:01;;;;;;;13.20;8.38;;;;;;;;;;5013961;28;20584;-62
2021/09/14 09:41:27;;;;;;;11.95;8.73;;;;;;;;;;5012570;28;20452;-61
2021/09/14 09:44:03;;;;;;;15.68;8.75;;;;;;;;;;5013941;28;20113;-61
2021/09/14 09:46:30;;;;;;;10.27;7.88;;;;;;;;;;5014189;28;20026;-62
2021/09/14 09:48:56;;;;;;;12.52;7.72;;;;;;;;;;5013750;28;20048;-62
2021/09/14 09:51:23;;;;;;;12.95;8.13;;;;;;;;;;5014336;28;20045;-63
2021/09/14 09:53:49;;;;;;;16.50;7.97;;;;;;;;;;5014429;28;20049;-65
2021/09/14 09:56:16;;;;;;;13.02;7.88;;;;;;;;;;5013157;28;20032;-65
2021/09/14 09:58:42;;;;;;;11.20;7.75;;;;;;;;;;4992739;28;20367;-64
2021/09/14 10:01:09;;;;;;;11.45;8.02;;;;;;;;;;5006394;28;20021;-65
2021/09/14 10:03:38;;;;;;;18.73;7.65;;;;;;;;;;5013184;28;20034;-65
2021/09/14 10:06:11;;;;;;;16.33;7.70;;;;;;;;;;5013521;28;20048;-64
2021/09/14 10:08:37;;;;;;;13.02;7.95;;;;;;;;;;5012036;28;20038;-64
2021/09/14 10:11:03;;;;;;;13.15;7.32;;;;;;;;;;5008885;28;20045;-63
2021/09/14 10:13:39;;;;;;;9.77;7.38;;;;;;;;;;5013403;28;20049;-66
2021/09/14 10:16:07;;;;;;;10.65;7.75;;;;;;;;;;5008225;28;20038;-62
2021/09/14 10:18:34;;;;;;;9.90;7.68;;;;;;;;;;5002713;28;20037;-66
2021/09/14 10:21:03;;;;;;;12.43;7.68;;;;;;;;;;5013297;28;20053;-62
2021/09/14 10:23:34;;;;;;;10.30;7.35;;;;;;;;;;5012720;28;20042;-62
2021/09/14 10:26:03;;;;;;;17.67;7.53;;;;;;;;;;5012454;28;20028;-62
2021/09/14 10:28:40;;;;;;;11.70;8.20;;;;;;;;;;5000238;28;20026;-62
2021/09/14 10:31:18;;;;;;;9.95;7.45;;;;;;;;;;5004257;28;20106;-63
2021/09/14 10:33:45;;;;;;;9.68;7.75;;;;;;;;;;4993874;28;20073;-62
2021/09/14 10:36:14;;;;;;;16.10;8.43;;;;;;;;;;4992871;28;20038;-63
2021/09/14 10:38:49;;;;;;;11.68;7.70;;;;;;;;;;5008791;28;20026;-64
2021/09/14 10:41:16;;;;;;;13.20;8.60;;;;;;;;;;5012850;28;20026;-64
2021/09/14 10:43:42;;;;;;;10.02;8.23;;;;;;;;;;5011070;28;20463;-63
2021/09/14 10:46:08;;;;;;;11.52;8.93;;;;;;;;;;5012921;28;20018;-63
2021/09/14 10:48:35;;;;;;;13.73;9.18;;;;;;;;;;5013101;28;20068;-63
2021/09/14 10:51:11;;;;;;;11.27;8.48;;;;;;;;;;5012005;28;20026;-64
2021/09/14 10:53:37;;;;;;;11.45;8.48;;;;;;;;;;5012695;28;20531;-62
2021/09/14 10:56:03;;;;;;;11.30;8.80;;;;;;;;;;5012743;28;20048;-62
2021/09/14 10:58:38;;;;;;;12.23;7.93;;;;;;;;;;5012711;28;20030;-61
2021/09/14 11:01:04;;;;;;;11.38;8.35;;;;;;;;;;5011503;28;20105;-62
2021/09/14 11:03:30;;;;;;;12.55;8.30;;;;;;;;;;5011290;28;20121;-62
2021/09/14 11:05:56;;;;;;;11.25;7.97;;;;;;;;;;5012801;28;20104;-61
2021/09/14 11:08:24;;;;;;;10.27;7.70;;;;;;;;;;5012707;28;20042;-61
2021/09/14 11:10:50;;;;;;;9.55;6.80;;;;;;;;;;5012755;28;20057;-61
2021/09/14 11:13:20;;;;;;;12.05;7.40;;;;;;;;;;5012498;28;20096;-61
2021/09/14 11:15:46;;;;;;;10.25;6.85;;;;;;;;;;5012818;28;20065;-62
2021/09/14 11:18:13;;;;;;;9.02;6.85;;;;;;;;;;5006934;28;20053;-62
2021/09/14 11:20:39;;;;;;;15.10;7.55;;;;;;;;;;5001582;28;20053;-62
2021/09/14 11:23:05;;;;;;;9.70;6.38;;;;;;;;;;5012877;28;20516;-62
2021/09/14 11:25:31;;;;;;;6.95;6.20;;;;;;;;;;5013022;28;20100;-62
2021/09/14 11:28:02;;;;;;;7.82;6.22;;;;;;;;;;5005015;28;20026;-61
2021/09/14 11:30:29;;;;;;;11.13;6.50;;;;;;;;;;4999104;28;20038;-61
2021/09/14 11:32:55;;;;;;;9.20;7.18;;;;;;;;;;5004115;28;20027;-62
2021/09/14 11:35:22;;;;;;;7.80;6.68;;;;;;;;;;5001434;28;20019;-62
2021/09/14 11:37:59;;;;;;;10.07;6.80;;;;;;;;;;4999346;28;20456;-62
2021/09/14 11:40:25;;;;;;;10.20;6.57;;;;;;;;;;5016182;28;20025;-62
2021/09/14 11:42:52;;;;;;;8.90;6.35;;;;;;;;;;5016593;28;20029;-63
2021/09/14 11:45:21;;;;;;;10.90;6.78;;;;;;;;;;5016491;28;20541;-61
2021/09/14 11:47:47;;;;;;;9.45;6.45;;;;;;;;;;5016575;28;20029;-62
2021/09/14 11:50:22;;;;;;;7.80;6.55;;;;;;;;;;5016421;28;20061;-61
2021/09/14 11:52:48;;;;;;;10.90;7.00;;;;;;;;;;5016470;28;20040;-61
2021/09/14 11:55:14;;;;;;;11.77;6.63;;;;;;;;;;5016334;28;20026;-61
2021/09/14 11:57:40;;;;;;;11.38;7.03;;;;;;;;;;5016429;28;20029;-62
2021/09/14 12:00:10;;;;;;;12.75;6.65;;;;;;;;;;5016389;28;20026;-61
2021/09/14 12:02:36;;;;;;;8.80;6.72;;;;;;;;;;5016417;28;20389;-61
2021/09/14 12:05:02;;;;;;;10.23;7.40;;;;;;;;;;5016123;28;20470;-61
2021/09/14 12:07:28;;;;;;;12.52;7.63;;;;;;;;;;5015071;28;20025;-61
2021/09/14 12:10:04;;;;;;;9.73;7.07;;;;;;;;;;5016368;28;20038;-62
2021/09/14 12:12:30;;;;;;;10.20;6.57;;;;;;;;;;5016266;28;20092;-61
2021/09/14 12:14:56;;;;;;;9.93;6.93;;;;;;;;;;5015946;28;20128;-61
2021/09/14 12:17:31;;;;;;;8.80;7.05;;;;;;;;;;5015995;28;20095;-61
2021/09/14 12:19:57;;;;;;;10.68;7.22;;;;;;;;;;5015847;28;20458;-61
2021/09/14 12:22:23;;;;;;;10.40;6.30;;;;;;;;;;5014776;28;20541;-62
2021/09/14 12:24:49;;;;;;;10.45;7.20;;;;;;;;;;5015908;28;20022;-60
2021/09/14 12:27:15;;;;;;;10.63;7.18;;;;;;;;;;5015775;28;20041;-61
2021/09/14 12:29:41;;;;;;;17.27;7.57;;;;;;;;;;5016069;28;20437;-61
2021/09/14 12:32:07;;;;;;;10.48;7.85;;;;;;;;;;5015826;28;20108;-61
2021/09/14 12:34:33;;;;;;;17.73;7.57;;;;;;;;;;5015594;28;20029;-60
2021/09/14 12:36:59;;;;;;;14.60;8.45;;;;;;;;;;5015564;28;20025;-61
2021/09/14 12:39:25;;;;;;;22.02;7.95;;;;;;;;;;5015726;28;20030;-60
2021/09/14 12:41:51;;;;;;;23.30;8.40;;;;;;;;;;5015485;28;20104;-62
2021/09/14 12:44:17;;;;;;;17.98;8.48;;;;;;;;;;5014374;28;20497;-61
2021/09/14 12:46:43;;;;;;;25.67;8.63;;;;;;;;;;5015588;28;20171;-62
2021/09/14 12:49:09;;;;;;;27.48;8.35;;;;;;;;;;5015206;28;20030;-61
2021/09/14 12:51:35;;;;;;;28.27;8.13;;;;;;;;;;5014111;28;20638;-61
2021/09/14 12:54:01;;;;;;;23.15;7.93;;;;;;;;;;5015744;28;20029;-61
2021/09/14 12:56:27;;;;;;;24.80;7.78;;;;;;;;;;5015253;28;20026;-60
2021/09/14 12:58:53;;;;;;;22.98;8.25;;;;;;;;;;5015623;28;20030;-62
2021/09/14 13:01:19;;;;;;;58.17;10.10;;;;;;;;;;5015398;28;20026;-62
2021/09/14 13:03:46;;;;;;;51.25;9.95;;;;;;;;;;5015104;28;20034;-59
2021/09/14 13:06:12;;;;;;;66.93;9.88;;;;;;;;;;5015218;28;20076;-60
2021/09/14 13:08:38;;;;;;;65.75;9.90;;;;;;;;;;5015219;28;20029;-60
2021/09/14 13:11:05;;;;;;;39.58;9.50;;;;;;;;;;5015216;28;20022;-61
2021/09/14 13:16:15;;;;;;;30.63;9.07;;;;;;;;;;5015132;28;20132;-60
2021/09/14 13:18:42;;;;;;;36.55;8.25;;;;;;;;;;5014909;28;20521;-59
2021/09/14 13:21:09;;;;;;;28.95;7.85;;;;;;;;;;5014885;28;20026;-63
2021/09/14 13:23:35;;;;;;;36.60;8.68;;;;;;;;;;5014721;28;20037;-62
2021/09/14 13:26:01;;;;;;;30.85;7.95;;;;;;;;;;5013820;28;20034;-61
2021/09/14 13:28:27;;;;;;;31.63;8.30;;;;;;;;;;5014758;28;20026;-61
2021/09/14 13:30:53;;;;;;;18.15;7.75;;;;;;;;;;5014686;28;20028;-61
2021/09/14 13:33:19;;;;;;;22.63;7.45;;;;;;;;;;5014612;28;20057;-60
2021/09/14 13:35:45;;;;;;;27.42;7.53;;;;;;;;;;5014504;28;20029;-60
2021/09/14 13:38:11;;;;;;;15.50;7.28;;;;;;;;;;5013189;28;20033;-60
2021/09/14 13:40:40;;;;;;;18.65;7.63;;;;;;;;;;5014776;28;20030;-60
2021/09/14 13:43:06;;;;;;;29.27;6.95;;;;;;;;;;5012563;28;20128;-60
2021/09/14 13:48:20;;;;;;;19.08;7.25;;;;;;;;;;5014428;28;20037;-61
2021/09/14 13:50:46;;;;;;;49.85;7.00;;;;;;;;;;5012896;28;20029;-66
2021/09/14 13:53:12;;;;;;;29.05;6.47;;;;;;;;;;5014273;28;20033;-64
2021/09/14 13:55:38;;;;;;;22.98;6.45;;;;;;;;;;5014313;28;20365;-64
2021/09/14 13:58:04;;;;;;;39.75;6.45;;;;;;;;;;5014266;28;20033;-66
2021/09/14 14:00:32;;;;;;;36.05;7.50;;;;;;;;;;5013298;28;20029;-66
2021/09/14 14:02:58;;;;;;;59.38;8.60;;;;;;;;;;5012139;28;20038;-67
2021/09/14 14:05:24;;;;;;;25.73;7.57;;;;;;;;;;5013664;28;20034;-68
2021/09/14 14:07:50;;;;;;;62.78;8.70;;;;;;;;;;5013963;28;20037;-68
2021/09/14 14:10:16;;;;;;;36.00;9.05;;;;;;;;;;5013989;28;20362;-66
2021/09/14 14:12:42;;;;;;;40.83;8.95;;;;;;;;;;5013868;28;20030;-67
2021/09/14 14:15:08;;;;;;;43.03;8.88;;;;;;;;;;5012577;28;20493;-68
2021/09/14 14:17:34;;;;;;;43.78;9.95;;;;;;;;;;5013666;28;20022;-72
2021/09/14 14:20:00;;;;;;;47.78;10.18;;;;;;;;;;5013664;28;20026;-67
2021/09/14 14:22:26;;;;;;;44.38;9.98;;;;;;;;;;5012729;28;20045;-67
2021/09/14 14:24:52;;;;;;;30.83;9.45;;;;;;;;;;5013770;28;20057;-65
2021/09/14 14:27:18;;;;;;;36.00;10.13;;;;;;;;;;5012647;28;20476;-66
2021/09/14 14:29:43;;;;;;;76.18;10.80;;;;;;;;;;5013921;28;20026;-68
2021/09/14 14:32:09;;;;;;;63.53;10.18;;;;;;;;;;5013692;28;20041;-67
2021/09/14 14:34:35;;;;;;;67.88;11.50;;;;;;;;;;5014194;28;20030;-71
2021/09/14 14:37:01;;;;;;;46.08;11.75;;;;;;;;;;5013567;28;20473;-67
2021/09/14 14:39:27;;;;;;;33.05;8.88;;;;;;;;;;5013590;28;20022;-68
2021/09/14 14:41:53;;;;;;;30.33;9.20;;;;;;;;;;5011976;28;20076;-68
2021/09/14 14:44:19;;;;;;;40.80;8.30;;;;;;;;;;5013717;28;20053;-67
2021/09/14 14:46:45;;;;;;;37.53;8.85;;;;;;;;;;5012019;28;20033;-68
2021/09/14 14:49:11;;;;;;;40.78;9.27;;;;;;;;;;5013267;28;20033;-68
2021/09/14 14:51:41;;;;;;;29.23;10.55;;;;;;;;;;5013408;28;20061;-68
2021/09/14 14:54:07;;;;;;;19.30;10.75;;;;;;;;;;5013146;28;20469;-67
2021/09/14 14:56:33;;;;;;;25.88;11.45;;;;;;;;;;5013308;28;20410;-67
2021/09/14 14:58:59;;;;;;;20.63;11.57;;;;;;;;;;5011587;28;20034;-68
2021/09/14 15:01:25;;;;;;;25.55;11.52;;;;;;;;;;5011743;28;20077;-65
2021/09/14 15:03:51;;;;;;;38.20;13.02;;;;;;;;;;5013135;28;20034;-67
2021/09/14 15:06:17;;;;;;;39.33;12.18;;;;;;;;;;5013256;28;20022;-68
2021/09/14 15:08:43;;;;;;;20.88;11.85;;;;;;;;;;5013070;28;20040;-67
2021/09/14 15:11:09;;;;;;;26.20;12.38;;;;;;;;;;5013192;28;20049;-70
2021/09/14 15:13:35;;;;;;;30.17;11.98;;;;;;;;;;5012744;28;20116;-68
2021/09/14 15:16:01;;;;;;;22.35;11.50;;;;;;;;;;5012940;28;20414;-67
2021/09/14 15:18:27;;;;;;;24.83;11.82;;;;;;;;;;5013025;28;20084;-68
2021/09/14 15:20:52;;;;;;;28.33;12.93;;;;;;;;;;5011608;28;20026;-66
2021/09/14 15:23:21;;;;;;;39.33;11.07;;;;;;;;;;5012770;28;20485;-67
2021/09/14 15:25:48;;;;;;;24.67;10.77;;;;;;;;;;5013073;28;20533;-66
2021/09/14 15:28:14;;;;;;;15.40;9.52;;;;;;;;;;5012784;28;20026;-67
2021/09/14 15:30:39;;;;;;;28.25;11.65;;;;;;;;;;5013141;28;20126;-64
2021/09/14 15:33:06;;;;;;;29.65;10.90;;;;;;;;;;5013045;28;20026;-64
2021/09/14 15:35:32;;;;;;;18.45;10.70;;;;;;;;;;5012805;28;20026;-67